Rose Haven, Maryland
Current Conditions -  °F | °C
As of 12:54 PM on Monday 26 Jan 2015 (Local Time) from KNAK Reporting Station
Overcast Overcast  
Wind Chill: 23°   Ceiling: 1200
Heat Index: 32°   Visibility: 9mi
Dew Point: 29°   Wind: 13mph
Humidity: 88%   Direction: 30°NNE
Pressure: 29.74"   Gusts: NA
Location:  38.7189°N, 76.5397°W
Report Text: KNAK 261754Z AUTO 03011KT 9SM OVC012 00/M02 A2974 RMK AO2 UPB18E49 SLP074 P0000 60008 T00001017 10017 20000 58025
Loading
Personal Weather Stations






























Interactive Weather Map New forecast layout! Learn more

10-Day Weather Forecast

Advertisements
Track Severe Weather on mobile